Logo Frankfurt-Egelsbach Airport
Hessische Flugplatz GmbH Egelsbach
Telefon : +49 (0)6103-9418-0
E-Mail : fly@egelsbach-airport.com
   

 

 

 

 

 

 

Aktuelle Daten

Öffnungszeiten: 0800 LT - SS+30 (max 2100 LT)

PPR: 0700 LT - 0800 LT, SS+30 - 2100 LT Tel +49 6103 9418-0

Beschränkung für NVFR-Anflüge mit HPA aufgehoben.

Behördlich vorgeschriebenes Briefing für NVFR-Anflüge mit HPA

» Behördlich vorgeschriebenes Briefing für NVFR-Anflüge mit HPA

Videos Streckenführung

 

Webcam

Webcam

Wetterdaten

Beobachtung von : 02-SEP-2014 - 09:00 UTC
Sonnenaufgang : 04:42 UTC
Sonnenuntergang : 18:08 UTC
Sicht : ausgefallen
Wolkenuntergrenze : nicht feststellbar
Wind : 100 / 1 kt
Wind extrem (10 min) : 170-080 / 1-3 kt
Temperatur : 18.2° Celsius
Taupunkt : 12.6° Celsius
QNH : 1021.6 hPa
Dichtehöhe : 630 ft

Daten werden automatisch generiert. Verfügbarkeit und Richtigkeit ohne Gewähr.
Mit freundlicher Unterstützung des Deutschen Wetterdienstes

Metar

562
SADL31 EDFE 020850
METAR EDFE 020850Z VRB01KT CAVOK 17/12 Q1021=


Notam

E2142/14 - EGELSBACH NDB EH 386 NOT FLIGHT CHECKED. DO NOT USE. DISREGARD ALL SIGNALS. 06 AUG 08:07 2014 UNTIL 04 NOV 08:07 2014 ESTIMATED.